sensor_id;sensor_type;location;lat;lon;timestamp;pressure;altitude;pressure_sealevel;temperature;humidity
41250;BME280;26984;59.928;30.306;2023-03-13T00:01:09;99409.34;;;-4.29;100.00
41250;BME280;26984;59.928;30.306;2023-03-13T00:03:37;99403.09;;;-4.28;100.00
41250;BME280;26984;59.928;30.306;2023-03-13T00:06:05;99410.53;;;-4.23;100.00
41250;BME280;26984;59.928;30.306;2023-03-13T00:08:34;99416.78;;;-4.24;100.00
41250;BME280;26984;59.928;30.306;2023-03-13T00:11:01;99409.69;;;-4.24;100.00
41250;BME280;26984;59.928;30.306;2023-03-13T00:13:29;99401.81;;;-4.24;100.00
41250;BME280;26984;59.928;30.306;2023-03-13T00:15:59;99417.00;;;-4.18;100.00
41250;BME280;26984;59.928;30.306;2023-03-13T00:18:27;99410.44;;;-4.14;100.00
41250;BME280;26984;59.928;30.306;2023-03-13T00:20:58;99412.94;;;-4.12;100.00
41250;BME280;26984;59.928;30.306;2023-03-13T00:23:25;99417.00;;;-4.18;100.00
41250;BME280;26984;59.928;30.306;2023-03-13T00:25:57;99421.66;;;-4.12;100.00
41250;BME280;26984;59.928;30.306;2023-03-13T00:28:26;99428.25;;;-4.07;100.00
41250;BME280;26984;59.928;30.306;2023-03-13T00:30:59;99424.00;;;-4.08;100.00
41250;BME280;26984;59.928;30.306;2023-03-13T00:33:26;99422.47;;;-4.11;100.00
41250;BME280;26984;59.928;30.306;2023-03-13T00:35:56;99422.31;;;-4.10;100.00
41250;BME280;26984;59.928;30.306;2023-03-13T00:38:24;99425.63;;;-4.07;100.00
41250;BME280;26984;59.928;30.306;2023-03-13T00:40:58;99427.75;;;-4.11;100.00
41250;BME280;26984;59.928;30.306;2023-03-13T00:43:26;99425.81;;;-4.09;100.00
41250;BME280;26984;59.928;30.306;2023-03-13T00:45:54;99425.94;;;-4.11;100.00
41250;BME280;26984;59.928;30.306;2023-03-13T00:48:21;99429.38;;;-4.10;100.00
41250;BME280;26984;59.928;30.306;2023-03-13T00:50:49;99432.00;;;-4.10;98.91
41250;BME280;26984;59.928;30.306;2023-03-13T00:53:16;99436.69;;;-4.04;97.27
41250;BME280;26984;59.928;30.306;2023-03-13T00:55:53;99442.69;;;-4.12;97.88
41250;BME280;26984;59.928;30.306;2023-03-13T00:58:23;99444.81;;;-4.15;97.89
41250;BME280;26984;59.928;30.306;2023-03-13T01:00:51;99473.50;;;-4.22;99.67
41250;BME280;26984;59.928;30.306;2023-03-13T01:03:19;99449.97;;;-4.23;100.00
41250;BME280;26984;59.928;30.306;2023-03-13T01:05:53;99456.16;;;-4.32;100.00
41250;BME280;26984;59.928;30.306;2023-03-13T01:08:21;99462.69;;;-4.37;100.00
41250;BME280;26984;59.928;30.306;2023-03-13T01:10:49;99460.47;;;-4.41;100.00
41250;BME280;26984;59.928;30.306;2023-03-13T01:13:16;99459.41;;;-4.48;100.00
41250;BME280;26984;59.928;30.306;2023-03-13T01:15:45;99460.41;;;-4.49;100.00
41250;BME280;26984;59.928;30.306;2023-03-13T01:18:13;99475.28;;;-4.58;100.00
41250;BME280;26984;59.928;30.306;2023-03-13T01:20:41;99480.81;;;-4.61;100.00
41250;BME280;26984;59.928;30.306;2023-03-13T01:23:08;99477.50;;;-4.63;100.00
41250;BME280;26984;59.928;30.306;2023-03-13T01:25:36;99484.72;;;-4.65;100.00
41250;BME280;26984;59.928;30.306;2023-03-13T01:28:05;99490.81;;;-4.65;100.00
41250;BME280;26984;59.928;30.306;2023-03-13T01:30:32;99485.53;;;-4.65;100.00
41250;BME280;26984;59.928;30.306;2023-03-13T01:33:01;99488.38;;;-4.76;100.00
41250;BME280;26984;59.928;30.306;2023-03-13T01:35:28;99499.13;;;-4.69;100.00
41250;BME280;26984;59.928;30.306;2023-03-13T01:37:57;99507.69;;;-4.67;100.00
41250;BME280;26984;59.928;30.306;2023-03-13T01:40:25;99516.78;;;-4.62;100.00
41250;BME280;26984;59.928;30.306;2023-03-13T01:42:52;99511.75;;;-4.73;100.00
41250;BME280;26984;59.928;30.306;2023-03-13T01:48:08;99513.13;;;-4.78;100.00
41250;BME280;26984;59.928;30.306;2023-03-13T01:50:46;99527.38;;;-4.81;100.00
41250;BME280;26984;59.928;30.306;2023-03-13T01:53:24;99532.09;;;-4.85;100.00
41250;BME280;26984;59.928;30.306;2023-03-13T01:55:52;99530.34;;;-4.94;100.00
41250;BME280;26984;59.928;30.306;2023-03-13T01:58:20;99529.13;;;-4.99;100.00
41250;BME280;26984;59.928;30.306;2023-03-13T02:00:48;99532.31;;;-5.06;100.00
41250;BME280;26984;59.928;30.306;2023-03-13T02:03:17;99533.44;;;-5.08;100.00
41250;BME280;26984;59.928;30.306;2023-03-13T02:05:46;99542.59;;;-5.12;100.00
41250;BME280;26984;59.928;30.306;2023-03-13T02:08:16;99554.06;;;-5.23;100.00
41250;BME280;26984;59.928;30.306;2023-03-13T02:10:47;99549.94;;;-5.25;100.00
41250;BME280;26984;59.928;30.306;2023-03-13T02:13:16;99547.03;;;-5.32;100.00
41250;BME280;26984;59.928;30.306;2023-03-13T02:15:44;99560.16;;;-5.32;100.00
41250;BME280;26984;59.928;30.306;2023-03-13T02:18:12;99558.91;;;-5.38;100.00
41250;BME280;26984;59.928;30.306;2023-03-13T02:20:41;99566.25;;;-5.41;100.00
41250;BME280;26984;59.928;30.306;2023-03-13T02:23:11;99571.09;;;-5.37;100.00
41250;BME280;26984;59.928;30.306;2023-03-13T02:25:42;99570.38;;;-5.39;100.00
41250;BME280;26984;59.928;30.306;2023-03-13T02:28:12;99575.38;;;-5.45;100.00
41250;BME280;26984;59.928;30.306;2023-03-13T02:30:42;99579.50;;;-5.53;100.00
41250;BME280;26984;59.928;30.306;2023-03-13T02:33:10;99577.31;;;-5.57;100.00
41250;BME280;26984;59.928;30.306;2023-03-13T02:35:37;99581.75;;;-5.67;100.00
41250;BME280;26984;59.928;30.306;2023-03-13T02:38:10;99592.22;;;-5.67;100.00
41250;BME280;26984;59.928;30.306;2023-03-13T02:40:40;99590.59;;;-5.68;100.00
41250;BME280;26984;59.928;30.306;2023-03-13T02:43:11;99602.88;;;-5.69;100.00
41250;BME280;26984;59.928;30.306;2023-03-13T02:45:41;99595.41;;;-5.73;100.00
41250;BME280;26984;59.928;30.306;2023-03-13T02:48:10;99600.25;;;-5.79;100.00
41250;BME280;26984;59.928;30.306;2023-03-13T02:50:37;99607.97;;;-5.77;100.00
41250;BME280;26984;59.928;30.306;2023-03-13T02:53:05;99620.69;;;-5.72;100.00
41250;BME280;26984;59.928;30.306;2023-03-13T02:55:34;99610.88;;;-5.70;100.00
41250;BME280;26984;59.928;30.306;2023-03-13T02:58:02;99617.91;;;-5.71;100.00
41250;BME280;26984;59.928;30.306;2023-03-13T03:00:35;99617.91;;;-5.81;100.00
41250;BME280;26984;59.928;30.306;2023-03-13T03:03:03;99627.44;;;-5.80;100.00
41250;BME280;26984;59.928;30.306;2023-03-13T03:05:30;99631.72;;;-5.79;100.00
41250;BME280;26984;59.928;30.306;2023-03-13T03:07:58;99631.56;;;-5.77;100.00
41250;BME280;26984;59.928;30.306;2023-03-13T03:10:27;99640.97;;;-5.74;100.00
41250;BME280;26984;59.928;30.306;2023-03-13T03:12:54;99643.75;;;-5.76;100.00
41250;BME280;26984;59.928;30.306;2023-03-13T03:15:22;99650.09;;;-5.79;100.00
41250;BME280;26984;59.928;30.306;2023-03-13T03:17:51;99649.09;;;-5.78;100.00
41250;BME280;26984;59.928;30.306;2023-03-13T03:20:18;99657.66;;;-5.85;100.00
41250;BME280;26984;59.928;30.306;2023-03-13T03:22:46;99661.53;;;-5.89;100.00
41250;BME280;26984;59.928;30.306;2023-03-13T03:25:13;99657.38;;;-5.92;100.00
41250;BME280;26984;59.928;30.306;2023-03-13T03:27:41;99666.75;;;-5.89;100.00
41250;BME280;26984;59.928;30.306;2023-03-13T03:30:09;99672.84;;;-5.98;100.00
41250;BME280;26984;59.928;30.306;2023-03-13T03:32:38;99668.16;;;-6.05;100.00
41250;BME280;26984;59.928;30.306;2023-03-13T03:35:07;99670.59;;;-6.13;100.00
41250;BME280;26984;59.928;30.306;2023-03-13T03:37:34;99683.44;;;-6.10;100.00
41250;BME280;26984;59.928;30.306;2023-03-13T03:40:03;99681.22;;;-6.14;100.00
41250;BME280;26984;59.928;30.306;2023-03-13T03:42:32;99681.47;;;-6.17;100.00
41250;BME280;26984;59.928;30.306;2023-03-13T03:44:59;99688.06;;;-6.23;100.00
41250;BME280;26984;59.928;30.306;2023-03-13T03:47:27;99692.75;;;-6.27;100.00
41250;BME280;26984;59.928;30.306;2023-03-13T03:49:54;99695.50;;;-6.28;100.00
41250;BME280;26984;59.928;30.306;2023-03-13T03:52:23;99699.88;;;-6.38;100.00
41250;BME280;26984;59.928;30.306;2023-03-13T03:54:51;99699.81;;;-6.48;100.00
41250;BME280;26984;59.928;30.306;2023-03-13T03:57:19;99702.25;;;-6.56;100.00
41250;BME280;26984;59.928;30.306;2023-03-13T03:59:47;99706.53;;;-6.55;100.00
41250;BME280;26984;59.928;30.306;2023-03-13T04:02:15;99705.13;;;-6.59;100.00
41250;BME280;26984;59.928;30.306;2023-03-13T04:04:43;99713.56;;;-6.56;100.00
41250;BME280;26984;59.928;30.306;2023-03-13T04:07:20;99721.56;;;-6.57;100.00
41250;BME280;26984;59.928;30.306;2023-03-13T04:09:50;99720.03;;;-6.60;100.00
41250;BME280;26984;59.928;30.306;2023-03-13T04:12:27;99724.84;;;-6.65;100.00
41250;BME280;26984;59.928;30.306;2023-03-13T04:14:55;99729.22;;;-6.65;100.00
41250;BME280;26984;59.928;30.306;2023-03-13T04:17:22;99725.34;;;-6.71;100.00
41250;BME280;26984;59.928;30.306;2023-03-13T04:19:50;99722.47;;;-6.68;100.00
41250;BME280;26984;59.928;30.306;2023-03-13T04:22:17;99735.50;;;-6.78;100.00
41250;BME280;26984;59.928;30.306;2023-03-13T04:24:51;99739.66;;;-6.75;100.00
41250;BME280;26984;59.928;30.306;2023-03-13T04:27:20;99748.59;;;-6.78;100.00
41250;BME280;26984;59.928;30.306;2023-03-13T04:29:49;99755.16;;;-6.83;100.00
41250;BME280;26984;59.928;30.306;2023-03-13T04:32:35;99752.94;;;-6.88;100.00
41250;BME280;26984;59.928;30.306;2023-03-13T04:35:28;99752.94;;;-6.88;100.00
41250;BME280;26984;59.928;30.306;2023-03-13T04:38:15;99756.69;;;-6.81;100.00
41250;BME280;26984;59.928;30.306;2023-03-13T04:41:02;99761.25;;;-6.83;100.00
41250;BME280;26984;59.928;30.306;2023-03-13T04:43:45;99759.47;;;-6.82;100.00
41250;BME280;26984;59.928;30.306;2023-03-13T04:46:41;99762.91;;;-6.82;100.00
41250;BME280;26984;59.928;30.306;2023-03-13T04:49:29;99762.31;;;-6.85;100.00
41250;BME280;26984;59.928;30.306;2023-03-13T04:52:28;99772.09;;;-6.87;100.00
41250;BME280;26984;59.928;30.306;2023-03-13T04:55:19;99767.38;;;-6.93;100.00
41250;BME280;26984;59.928;30.306;2023-03-13T04:58:05;99778.47;;;-6.80;100.00
41250;BME280;26984;59.928;30.306;2023-03-13T05:00:39;99776.09;;;-6.83;100.00
41250;BME280;26984;59.928;30.306;2023-03-13T05:03:13;99786.91;;;-6.77;100.00
41250;BME280;26984;59.928;30.306;2023-03-13T05:06:06;99782.50;;;-6.76;100.00
41250;BME280;26984;59.928;30.306;2023-03-13T05:08:52;99778.69;;;-6.72;100.00
41250;BME280;26984;59.928;30.306;2023-03-13T05:11:20;99786.50;;;-6.61;100.00
41250;BME280;26984;59.928;30.306;2023-03-13T05:14:08;99788.16;;;-6.60;100.00
41250;BME280;26984;59.928;30.306;2023-03-13T05:17:08;99789.31;;;-6.53;100.00
41250;BME280;26984;59.928;30.306;2023-03-13T05:20:06;99806.19;;;-6.45;100.00
41250;BME280;26984;59.928;30.306;2023-03-13T05:22:54;99799.28;;;-6.46;100.00
41250;BME280;26984;59.928;30.306;2023-03-13T05:25:34;99806.63;;;-6.40;100.00
41250;BME280;26984;59.928;30.306;2023-03-13T05:28:01;99799.31;;;-6.37;100.00
41250;BME280;26984;59.928;30.306;2023-03-13T05:30:33;99803.22;;;-6.31;100.00
41250;BME280;26984;59.928;30.306;2023-03-13T05:33:07;99807.00;;;-6.24;100.00
41250;BME280;26984;59.928;30.306;2023-03-13T05:35:58;99810.44;;;-6.23;100.00
41250;BME280;26984;59.928;30.306;2023-03-13T05:38:45;99813.53;;;-6.18;100.00
41250;BME280;26984;59.928;30.306;2023-03-13T05:41:40;99810.91;;;-6.18;100.00
41250;BME280;26984;59.928;30.306;2023-03-13T05:44:13;99806.34;;;-6.16;100.00
41250;BME280;26984;59.928;30.306;2023-03-13T05:47:00;99826.97;;;-6.12;100.00
41250;BME280;26984;59.928;30.306;2023-03-13T05:50:00;99817.72;;;-6.06;100.00
41250;BME280;26984;59.928;30.306;2023-03-13T05:52:47;99830.06;;;-5.97;100.00
41250;BME280;26984;59.928;30.306;2023-03-13T05:55:15;99820.16;;;-5.93;100.00
41250;BME280;26984;59.928;30.306;2023-03-13T05:58:05;99826.50;;;-5.86;100.00
41250;BME280;26984;59.928;30.306;2023-03-13T06:01:11;99825.97;;;-5.80;100.00
41250;BME280;26984;59.928;30.306;2023-03-13T06:04:04;99826.41;;;-5.75;100.00
41250;BME280;26984;59.928;30.306;2023-03-13T06:06:34;99837.47;;;-5.71;100.00
41250;BME280;26984;59.928;30.306;2023-03-13T06:09:02;99831.72;;;-5.65;100.00
41250;BME280;26984;59.928;30.306;2023-03-13T06:11:32;99837.94;;;-5.57;100.00
41250;BME280;26984;59.928;30.306;2023-03-13T06:14:00;99833.31;;;-5.43;100.00
41250;BME280;26984;59.928;30.306;2023-03-13T06:16:52;99846.47;;;-5.24;100.00
41250;BME280;26984;59.928;30.306;2023-03-13T06:19:22;99841.13;;;-5.13;100.00
41250;BME280;26984;59.928;30.306;2023-03-13T06:21:50;99856.91;;;-4.93;100.00
41250;BME280;26984;59.928;30.306;2023-03-13T06:24:17;99843.69;;;-4.72;100.00
41250;BME280;26984;59.928;30.306;2023-03-13T06:26:46;99849.34;;;-4.58;100.00
41250;BME280;26984;59.928;30.306;2023-03-13T06:29:14;99848.38;;;-4.37;100.00
41250;BME280;26984;59.928;30.306;2023-03-13T06:31:42;99851.25;;;-4.21;100.00
41250;BME280;26984;59.928;30.306;2023-03-13T06:34:09;99849.88;;;-4.15;100.00
41250;BME280;26984;59.928;30.306;2023-03-13T06:36:39;99855.78;;;-4.03;100.00
41250;BME280;26984;59.928;30.306;2023-03-13T06:39:06;99865.97;;;-3.81;100.00
41250;BME280;26984;59.928;30.306;2023-03-13T06:41:34;99851.44;;;-3.75;100.00
41250;BME280;26984;59.928;30.306;2023-03-13T06:44:02;99864.75;;;-3.77;100.00
41250;BME280;26984;59.928;30.306;2023-03-13T06:46:29;99862.50;;;-3.72;100.00
41250;BME280;26984;59.928;30.306;2023-03-13T06:48:57;99871.94;;;-3.69;100.00
41250;BME280;26984;59.928;30.306;2023-03-13T06:51:25;99870.09;;;-3.59;100.00
41250;BME280;26984;59.928;30.306;2023-03-13T06:53:54;99870.88;;;-3.49;100.00
41250;BME280;26984;59.928;30.306;2023-03-13T06:56:22;99870.41;;;-3.34;100.00
41250;BME280;26984;59.928;30.306;2023-03-13T06:58:49;99871.91;;;-3.32;100.00
41250;BME280;26984;59.928;30.306;2023-03-13T07:01:17;99869.78;;;-3.19;100.00
41250;BME280;26984;59.928;30.306;2023-03-13T07:03:45;99878.84;;;-3.03;100.00
41250;BME280;26984;59.928;30.306;2023-03-13T07:06:13;99883.78;;;-2.91;100.00
41250;BME280;26984;59.928;30.306;2023-03-13T07:08:40;99892.28;;;-2.79;100.00
41250;BME280;26984;59.928;30.306;2023-03-13T07:11:11;99887.31;;;-2.82;100.00
41250;BME280;26984;59.928;30.306;2023-03-13T07:13:38;99888.81;;;-2.97;100.00
41250;BME280;26984;59.928;30.306;2023-03-13T07:16:07;99887.78;;;-2.86;100.00
41250;BME280;26984;59.928;30.306;2023-03-13T07:18:35;99895.16;;;-2.72;100.00
41250;BME280;26984;59.928;30.306;2023-03-13T07:21:03;99909.25;;;-2.63;100.00
41250;BME280;26984;59.928;30.306;2023-03-13T07:23:31;99911.91;;;-2.63;100.00
41250;BME280;26984;59.928;30.306;2023-03-13T07:25:59;99912.59;;;-2.44;100.00
41250;BME280;26984;59.928;30.306;2023-03-13T07:28:29;99919.97;;;-2.47;100.00
41250;BME280;26984;59.928;30.306;2023-03-13T07:31:02;99915.81;;;-2.68;100.00
41250;BME280;26984;59.928;30.306;2023-03-13T07:33:30;99912.84;;;-2.82;100.00
41250;BME280;26984;59.928;30.306;2023-03-13T07:35:57;99911.19;;;-2.83;100.00
41250;BME280;26984;59.928;30.306;2023-03-13T07:38:24;99910.38;;;-2.84;100.00
41250;BME280;26984;59.928;30.306;2023-03-13T07:40:53;99916.59;;;-2.85;100.00
41250;BME280;26984;59.928;30.306;2023-03-13T07:43:21;99925.75;;;-2.79;100.00
41250;BME280;26984;59.928;30.306;2023-03-13T07:45:54;99919.59;;;-2.70;100.00
41250;BME280;26984;59.928;30.306;2023-03-13T07:48:22;99938.91;;;-2.52;100.00
41250;BME280;26984;59.928;30.306;2023-03-13T07:50:50;99941.84;;;-2.37;100.00
41250;BME280;26984;59.928;30.306;2023-03-13T07:53:17;99935.81;;;-2.11;100.00
41250;BME280;26984;59.928;30.306;2023-03-13T07:55:56;99935.44;;;-1.99;100.00
41250;BME280;26984;59.928;30.306;2023-03-13T07:58:24;99932.06;;;-2.09;100.00
41250;BME280;26984;59.928;30.306;2023-03-13T08:00:54;99954.34;;;-2.21;100.00
41250;BME280;26984;59.928;30.306;2023-03-13T08:03:21;99934.94;;;-2.20;100.00
41250;BME280;26984;59.928;30.306;2023-03-13T08:05:56;99943.66;;;-2.20;100.00
41250;BME280;26984;59.928;30.306;2023-03-13T08:08:23;99943.03;;;-2.13;100.00
41250;BME280;26984;59.928;30.306;2023-03-13T08:10:51;99952.75;;;-1.96;100.00
41250;BME280;26984;59.928;30.306;2023-03-13T08:13:18;99952.19;;;-1.64;100.00
41250;BME280;26984;59.928;30.306;2023-03-13T08:15:46;99958.50;;;-1.57;100.00
41250;BME280;26984;59.928;30.306;2023-03-13T08:18:14;99962.41;;;-1.43;100.00
41250;BME280;26984;59.928;30.306;2023-03-13T08:20:42;99961.19;;;-1.31;100.00
41250;BME280;26984;59.928;30.306;2023-03-13T08:23:09;99968.13;;;-1.30;100.00
41250;BME280;26984;59.928;30.306;2023-03-13T08:25:37;99975.47;;;-1.41;98.98
41250;BME280;26984;59.928;30.306;2023-03-13T08:28:04;99974.75;;;-1.52;100.00
41250;BME280;26984;59.928;30.306;2023-03-13T08:30:32;99981.06;;;-1.45;100.00
41250;BME280;26984;59.928;30.306;2023-03-13T08:32:59;99975.28;;;-1.48;100.00
41250;BME280;26984;59.928;30.306;2023-03-13T08:35:29;99992.25;;;-1.51;100.00
41250;BME280;26984;59.928;30.306;2023-03-13T08:37:56;99982.00;;;-1.72;100.00
41250;BME280;26984;59.928;30.306;2023-03-13T08:40:24;99994.56;;;-1.74;100.00
41250;BME280;26984;59.928;30.306;2023-03-13T08:42:51;100002.31;;;-1.72;100.00
41250;BME280;26984;59.928;30.306;2023-03-13T08:45:19;100001.13;;;-1.60;100.00
41250;BME280;26984;59.928;30.306;2023-03-13T08:47:50;100003.84;;;-1.70;100.00
41250;BME280;26984;59.928;30.306;2023-03-13T08:50:18;100001.66;;;-1.74;100.00
41250;BME280;26984;59.928;30.306;2023-03-13T08:52:46;100009.16;;;-1.61;100.00
41250;BME280;26984;59.928;30.306;2023-03-13T08:55:14;100021.84;;;-1.47;100.00
41250;BME280;26984;59.928;30.306;2023-03-13T08:57:41;100012.72;;;-1.27;100.00
41250;BME280;26984;59.928;30.306;2023-03-13T09:00:09;100019.28;;;-1.13;100.00
41250;BME280;26984;59.928;30.306;2023-03-13T09:02:38;100016.00;;;-1.33;100.00
41250;BME280;26984;59.928;30.306;2023-03-13T09:05:06;100028.63;;;-1.45;100.00
41250;BME280;26984;59.928;30.306;2023-03-13T09:07:34;100034.44;;;-1.41;100.00
41250;BME280;26984;59.928;30.306;2023-03-13T09:10:03;100040.56;;;-1.58;100.00
41250;BME280;26984;59.928;30.306;2023-03-13T09:12:30;100035.03;;;-1.47;100.00
41250;BME280;26984;59.928;30.306;2023-03-13T09:14:58;100043.03;;;-1.39;100.00
41250;BME280;26984;59.928;30.306;2023-03-13T09:17:25;100049.06;;;-1.47;100.00
41250;BME280;26984;59.928;30.306;2023-03-13T09:19:52;100050.75;;;-1.46;100.00
41250;BME280;26984;59.928;30.306;2023-03-13T09:22:20;100068.72;;;-1.31;100.00
41250;BME280;26984;59.928;30.306;2023-03-13T09:24:47;100058.78;;;-1.29;100.00
41250;BME280;26984;59.928;30.306;2023-03-13T09:27:16;100052.63;;;-1.38;100.00
41250;BME280;26984;59.928;30.306;2023-03-13T09:29:44;100067.03;;;-1.32;100.00
41250;BME280;26984;59.928;30.306;2023-03-13T09:32:11;100069.88;;;-1.26;100.00
41250;BME280;26984;59.928;30.306;2023-03-13T09:34:38;100067.72;;;-1.30;100.00
41250;BME280;26984;59.928;30.306;2023-03-13T09:37:06;100062.94;;;-1.27;100.00
41250;BME280;26984;59.928;30.306;2023-03-13T09:39:33;100069.13;;;-1.18;100.00
41250;BME280;26984;59.928;30.306;2023-03-13T09:42:02;100077.00;;;-1.26;100.00
41250;BME280;26984;59.928;30.306;2023-03-13T09:44:37;100075.34;;;-1.27;100.00
41250;BME280;26984;59.928;30.306;2023-03-13T09:47:08;100089.59;;;-1.20;100.00
41250;BME280;26984;59.928;30.306;2023-03-13T09:49:38;100076.63;;;-1.31;100.00
41250;BME280;26984;59.928;30.306;2023-03-13T09:52:13;100090.91;;;-1.42;100.00
41250;BME280;26984;59.928;30.306;2023-03-13T09:54:42;100123.88;;;-1.46;100.00
41250;BME280;26984;59.928;30.306;2023-03-13T09:57:14;100108.25;;;-1.57;100.00
41250;BME280;26984;59.928;30.306;2023-03-13T09:59:46;100110.75;;;-1.74;100.00
41250;BME280;26984;59.928;30.306;2023-03-13T10:02:17;100103.97;;;-1.76;100.00
41250;BME280;26984;59.928;30.306;2023-03-13T10:04:47;100101.38;;;-1.68;100.00
41250;BME280;26984;59.928;30.306;2023-03-13T10:07:16;100106.44;;;-1.75;100.00
41250;BME280;26984;59.928;30.306;2023-03-13T10:09:45;100120.28;;;-1.63;100.00
41250;BME280;26984;59.928;30.306;2023-03-13T10:12:14;100127.97;;;-1.52;100.00
41250;BME280;26984;59.928;30.306;2023-03-13T10:14:48;100130.22;;;-1.57;100.00
41250;BME280;26984;59.928;30.306;2023-03-13T10:17:21;100125.63;;;-1.55;100.00
41250;BME280;26984;59.928;30.306;2023-03-13T10:19:54;100126.44;;;-1.54;100.00
41250;BME280;26984;59.928;30.306;2023-03-13T10:22:24;100134.31;;;-1.62;100.00
41250;BME280;26984;59.928;30.306;2023-03-13T10:24:54;100137.78;;;-1.62;100.00
41250;BME280;26984;59.928;30.306;2023-03-13T10:27:23;100133.19;;;-1.60;100.00
41250;BME280;26984;59.928;30.306;2023-03-13T10:29:52;100139.00;;;-1.56;100.00
41250;BME280;26984;59.928;30.306;2023-03-13T10:32:20;100139.81;;;-1.56;100.00
41250;BME280;26984;59.928;30.306;2023-03-13T10:34:54;100157.91;;;-1.61;100.00
41250;BME280;26984;59.928;30.306;2023-03-13T10:37:23;100157.53;;;-1.66;100.00
41250;BME280;26984;59.928;30.306;2023-03-13T10:39:51;100135.34;;;-1.73;100.00
41250;BME280;26984;59.928;30.306;2023-03-13T10:42:23;100153.31;;;-1.77;100.00
41250;BME280;26984;59.928;30.306;2023-03-13T10:45:00;100142.38;;;-1.64;100.00
41250;BME280;26984;59.928;30.306;2023-03-13T10:47:31;100176.50;;;-1.71;100.00
41250;BME280;26984;59.928;30.306;2023-03-13T10:49:59;100169.84;;;-1.57;100.00
41250;BME280;26984;59.928;30.306;2023-03-13T10:52:29;100159.28;;;-1.57;100.00
41250;BME280;26984;59.928;30.306;2023-03-13T10:55:01;100159.44;;;-1.58;100.00
41250;BME280;26984;59.928;30.306;2023-03-13T10:57:29;100168.72;;;-1.54;100.00
41250;BME280;26984;59.928;30.306;2023-03-13T10:59:57;100165.63;;;-1.50;100.00
41250;BME280;26984;59.928;30.306;2023-03-13T11:02:34;100172.44;;;-1.47;100.00
41250;BME280;26984;59.928;30.306;2023-03-13T11:05:04;100156.81;;;-1.40;100.00
41250;BME280;26984;59.928;30.306;2023-03-13T11:07:53;100171.75;;;-1.49;100.00
41250;BME280;26984;59.928;30.306;2023-03-13T11:10:22;100189.50;;;-1.41;100.00
41250;BME280;26984;59.928;30.306;2023-03-13T11:12:50;100168.19;;;-1.40;100.00
41250;BME280;26984;59.928;30.306;2023-03-13T11:15:19;100169.19;;;-1.41;100.00
41250;BME280;26984;59.928;30.306;2023-03-13T11:17:51;100170.53;;;-1.37;100.00
41250;BME280;26984;59.928;30.306;2023-03-13T11:20:23;100175.53;;;-1.34;100.00
41250;BME280;26984;59.928;30.306;2023-03-13T11:22:55;100172.31;;;-1.28;100.00
41250;BME280;26984;59.928;30.306;2023-03-13T11:25:29;100187.00;;;-1.25;100.00
41250;BME280;26984;59.928;30.306;2023-03-13T11:28:10;100175.75;;;-1.27;100.00
41250;BME280;26984;59.928;30.306;2023-03-13T11:30:48;100190.56;;;-1.16;100.00
41250;BME280;26984;59.928;30.306;2023-03-13T11:33:23;100190.56;;;-1.16;100.00
41250;BME280;26984;59.928;30.306;2023-03-13T11:35:56;100185.03;;;-1.05;100.00
41250;BME280;26984;59.928;30.306;2023-03-13T11:38:28;100187.81;;;-1.07;100.00
41250;BME280;26984;59.928;30.306;2023-03-13T11:41:00;100189.56;;;-0.98;100.00
41250;BME280;26984;59.928;30.306;2023-03-13T11:43:34;100189.72;;;-0.81;100.00
41250;BME280;26984;59.928;30.306;2023-03-13T11:46:21;100191.72;;;-0.75;100.00
41250;BME280;26984;59.928;30.306;2023-03-13T11:49:01;100186.00;;;-0.70;100.00
41250;BME280;26984;59.928;30.306;2023-03-13T11:51:32;100190.19;;;-0.60;100.00
41250;BME280;26984;59.928;30.306;2023-03-13T11:54:13;100209.31;;;-0.66;100.00
41250;BME280;26984;59.928;30.306;2023-03-13T11:56:49;100206.38;;;-0.63;100.00
41250;BME280;26984;59.928;30.306;2023-03-13T11:59:21;100214.25;;;-0.71;100.00
41250;BME280;26984;59.928;30.306;2023-03-13T12:01:53;100208.97;;;-0.71;100.00
41250;BME280;26984;59.928;30.306;2023-03-13T12:04:24;100212.97;;;-0.67;100.00
41250;BME280;26984;59.928;30.306;2023-03-13T12:06:55;100210.69;;;-0.62;100.00
41250;BME280;26984;59.928;30.306;2023-03-13T12:09:26;100218.78;;;-0.63;100.00
41250;BME280;26984;59.928;30.306;2023-03-13T12:11:56;100214.97;;;-0.61;100.00
41250;BME280;26984;59.928;30.306;2023-03-13T12:14:30;100222.00;;;-0.52;100.00
41250;BME280;26984;59.928;30.306;2023-03-13T12:17:00;100226.22;;;-0.41;100.00
41250;BME280;26984;59.928;30.306;2023-03-13T12:19:31;100223.78;;;-0.34;99.20
41250;BME280;26984;59.928;30.306;2023-03-13T12:22:01;100225.50;;;-0.43;99.25
41250;BME280;26984;59.928;30.306;2023-03-13T12:24:34;100220.75;;;-0.39;99.11
41250;BME280;26984;59.928;30.306;2023-03-13T12:27:07;100242.25;;;-0.42;99.29
41250;BME280;26984;59.928;30.306;2023-03-13T12:29:40;100230.47;;;-0.48;98.29
41250;BME280;26984;59.928;30.306;2023-03-13T12:32:12;100226.25;;;-0.59;100.00
41250;BME280;26984;59.928;30.306;2023-03-13T12:34:45;100227.34;;;-0.43;99.29
41250;BME280;26984;59.928;30.306;2023-03-13T12:37:19;100228.69;;;-0.39;100.00
41250;BME280;26984;59.928;30.306;2023-03-13T12:39:51;100242.22;;;-0.25;97.55
41250;BME280;26984;59.928;30.306;2023-03-13T12:42:35;100235.41;;;-0.27;96.46
41250;BME280;26984;59.928;30.306;2023-03-13T12:45:03;100235.50;;;-0.37;95.63
41250;BME280;26984;59.928;30.306;2023-03-13T12:47:32;100242.31;;;-0.34;96.87
41250;BME280;26984;59.928;30.306;2023-03-13T12:50:12;100242.66;;;-0.29;96.96
41250;BME280;26984;59.928;30.306;2023-03-13T12:52:50;100238.53;;;-0.32;96.28
41250;BME280;26984;59.928;30.306;2023-03-13T12:58:11;100243.09;;;-0.42;95.69
41250;BME280;26984;59.928;30.306;2023-03-13T13:00:41;100235.44;;;-0.45;94.06
41250;BME280;26984;59.928;30.306;2023-03-13T13:03:16;100250.34;;;-0.44;95.08
41250;BME280;26984;59.928;30.306;2023-03-13T13:05:58;100258.47;;;-0.37;96.10